createdAt,value
2023-02-13T00:00:31.778Z,23.73
2023-02-13T00:03:18.879Z,24.38
2023-02-13T00:05:46.444Z,25.73
2023-02-13T00:08:13.439Z,25.00
2023-02-13T00:10:40.866Z,25.50
2023-02-13T00:13:07.884Z,23.20
2023-02-13T00:15:35.379Z,27.30
2023-02-13T00:18:03.113Z,25.02
2023-02-13T00:20:30.592Z,29.55
2023-02-13T00:22:58.678Z,26.08
2023-02-13T00:25:26.053Z,21.75
2023-02-13T00:27:54.201Z,24.52
2023-02-13T00:30:22.221Z,23.17
2023-02-13T00:32:49.268Z,25.00
2023-02-13T00:35:16.708Z,24.33
2023-02-13T00:37:43.701Z,25.15
2023-02-13T00:40:11.460Z,22.73
2023-02-13T00:42:38.823Z,22.05
2023-02-13T00:45:06.642Z,22.13
2023-02-13T00:47:33.728Z,22.40
2023-02-13T00:50:01.649Z,22.58
2023-02-13T00:52:28.724Z,23.33
2023-02-13T00:54:56.144Z,21.35
2023-02-13T00:57:23.179Z,20.90
2023-02-13T00:59:51.145Z,20.92
2023-02-13T01:02:18.834Z,21.60
2023-02-13T01:04:46.237Z,20.55
2023-02-13T01:07:15.236Z,21.92
2023-02-13T01:09:44.918Z,22.65
2023-02-13T01:12:11.989Z,20.13
2023-02-13T01:14:39.367Z,21.73
2023-02-13T01:17:06.374Z,24.38
2023-02-13T01:19:33.816Z,21.85
2023-02-13T01:22:00.804Z,21.58
2023-02-13T01:24:30.258Z,20.70
2023-02-13T01:27:02.500Z,21.23
2023-02-13T01:29:30.054Z,23.30
2023-02-13T01:31:57.101Z,18.50
2023-02-13T01:34:28.873Z,15.68
2023-02-13T01:36:55.959Z,16.25
2023-02-13T01:39:25.347Z,17.15
2023-02-13T01:41:52.578Z,16.38
2023-02-13T01:44:38.760Z,15.70
2023-02-13T01:47:05.785Z,15.38
2023-02-13T01:49:33.491Z,16.55
2023-02-13T01:52:00.630Z,15.65
2023-02-13T01:54:31.488Z,15.38
2023-02-13T01:57:03.915Z,17.15
2023-02-13T01:59:34.913Z,20.73
2023-02-13T02:02:02.892Z,20.52
2023-02-13T02:04:34.985Z,18.17
2023-02-13T02:07:11.068Z,19.05
2023-02-13T02:09:40.030Z,17.95
2023-02-13T02:12:25.819Z,18.67
2023-02-13T02:14:54.326Z,17.33
2023-02-13T02:17:24.609Z,16.88
2023-02-13T02:19:52.012Z,17.33
2023-02-13T02:22:33.013Z,17.02
2023-02-13T02:25:19.239Z,18.45
2023-02-13T02:27:46.480Z,16.95
2023-02-13T02:30:13.774Z,18.60
2023-02-13T02:32:49.982Z,19.75
2023-02-13T02:35:43.614Z,23.85
2023-02-13T02:38:10.796Z,22.70
2023-02-13T02:40:38.332Z,24.00
2023-02-13T02:43:14.596Z,22.90
2023-02-13T02:46:01.529Z,23.15
2023-02-13T02:51:37.262Z,28.70
2023-02-13T02:54:31.021Z,15.30
2023-02-13T02:57:06.168Z,16.58
2023-02-13T02:59:53.171Z,18.77
2023-02-13T03:02:40.365Z,14.63
2023-02-13T03:05:34.590Z,15.73
2023-02-13T03:08:02.866Z,16.48
2023-02-13T03:10:50.763Z,15.73
2023-02-13T03:13:29.057Z,15.75
2023-02-13T03:16:17.928Z,17.25
2023-02-13T03:19:05.893Z,16.95
2023-02-13T03:22:12.953Z,16.95
2023-02-13T03:24:59.203Z,18.63
2023-02-13T03:27:57.158Z,18.42
2023-02-13T03:30:35.675Z,18.75
2023-02-13T03:33:14.976Z,21.13
2023-02-13T03:36:00.833Z,18.45
2023-02-13T03:38:30.331Z,18.10
2023-02-13T03:41:19.535Z,18.35
2023-02-13T03:43:46.625Z,18.00
2023-02-13T03:46:15.421Z,20.77
2023-02-13T03:49:01.674Z,19.33
2023-02-13T03:53:57.992Z,20.33
2023-02-13T03:56:45.565Z,19.83
2023-02-13T03:59:20.077Z,24.13
2023-02-13T04:02:06.192Z,22.27
2023-02-13T04:04:51.233Z,21.73
2023-02-13T04:07:32.880Z,20.95
2023-02-13T04:10:01.832Z,23.13
2023-02-13T04:12:52.104Z,22.70
2023-02-13T04:15:21.108Z,22.33
2023-02-13T04:18:03.538Z,23.20
2023-02-13T04:20:31.897Z,23.98
2023-02-13T04:23:04.183Z,25.13
2023-02-13T04:25:31.296Z,24.85
2023-02-13T04:27:58.638Z,23.83
2023-02-13T04:30:25.681Z,26.15
2023-02-13T04:32:53.174Z,25.73
2023-02-13T04:35:23.462Z,24.65
2023-02-13T04:37:51.018Z,22.83
2023-02-13T04:40:18.069Z,29.58
2023-02-13T04:42:47.951Z,26.85
2023-02-13T04:45:15.284Z,24.17
2023-02-13T04:47:42.660Z,40.03
2023-02-13T04:50:09.878Z,34.83
2023-02-13T04:52:37.256Z,23.17
2023-02-13T04:55:04.421Z,20.08
2023-02-13T04:57:31.786Z,21.30
2023-02-13T04:59:58.800Z,20.23
2023-02-13T05:02:26.366Z,16.90
2023-02-13T05:04:53.470Z,22.90
2023-02-13T05:07:20.809Z,22.27
2023-02-13T05:09:47.897Z,21.52
2023-02-13T05:12:15.171Z,16.90
2023-02-13T05:14:42.282Z,17.50
2023-02-13T05:17:09.664Z,17.75
2023-02-13T05:19:36.641Z,18.02
2023-02-13T05:22:22.657Z,17.95
2023-02-13T05:24:49.716Z,19.17
2023-02-13T05:27:17.119Z,17.17
2023-02-13T05:29:44.104Z,18.52
2023-02-13T05:32:11.568Z,18.10
2023-02-13T05:34:38.664Z,18.70
2023-02-13T05:37:05.970Z,21.00
2023-02-13T05:39:33.009Z,22.10
2023-02-13T05:42:00.487Z,22.38
2023-02-13T05:44:27.638Z,22.58
2023-02-13T05:46:55.054Z,24.42
2023-02-13T05:49:23.113Z,24.48
2023-02-13T05:51:52.503Z,26.00
2023-02-13T05:54:19.593Z,27.63
2023-02-13T05:56:47.244Z,31.02
2023-02-13T05:59:14.382Z,39.78
2023-02-13T06:01:41.756Z,39.47
2023-02-13T06:04:08.916Z,48.97
2023-02-13T06:06:36.429Z,59.28
2023-02-13T06:09:03.471Z,112.32
2023-02-13T06:11:30.829Z,90.38
2023-02-13T06:13:57.830Z,48.55
2023-02-13T06:16:25.227Z,45.38
2023-02-13T06:18:52.643Z,43.13
2023-02-13T06:21:20.108Z,41.58
2023-02-13T06:23:47.158Z,53.42
2023-02-13T06:26:14.646Z,66.70
2023-02-13T06:28:41.715Z,61.10
2023-02-13T06:31:09.317Z,60.90
2023-02-13T06:33:36.414Z,65.50
2023-02-13T06:36:03.928Z,57.35
2023-02-13T06:38:32.231Z,55.38
2023-02-13T06:41:02.558Z,53.00
2023-02-13T06:43:29.871Z,55.78
2023-02-13T06:45:57.212Z,62.47
2023-02-13T06:48:24.264Z,59.25
2023-02-13T06:50:54.997Z,50.05
2023-02-13T06:53:25.784Z,50.10
2023-02-13T06:55:53.754Z,49.97
2023-02-13T06:58:21.661Z,46.83
2023-02-13T07:00:49.867Z,46.40
2023-02-13T07:03:17.071Z,49.45
2023-02-13T07:05:45.133Z,55.28
2023-02-13T07:08:12.953Z,95.28
2023-02-13T07:10:41.138Z,63.35
2023-02-13T07:13:08.782Z,51.60
2023-02-13T07:15:36.740Z,46.58
2023-02-13T07:18:03.912Z,49.40
2023-02-13T07:20:31.438Z,65.97
2023-02-13T07:23:01.859Z,61.30
2023-02-13T07:25:29.367Z,49.65
2023-02-13T07:28:00.810Z,39.63
2023-02-13T07:30:28.309Z,38.20
2023-02-13T07:32:58.255Z,31.83
2023-02-13T07:35:25.795Z,33.83
2023-02-13T07:37:55.900Z,36.78
2023-02-13T07:40:23.287Z,37.58
2023-02-13T07:42:50.347Z,38.17
2023-02-13T07:45:17.880Z,39.10
2023-02-13T07:47:44.937Z,44.38
2023-02-13T07:50:12.531Z,42.92
2023-02-13T07:52:39.691Z,39.65
2023-02-13T07:55:07.258Z,36.45
2023-02-13T07:57:34.337Z,37.13
2023-02-13T08:00:01.733Z,38.83
2023-02-13T08:02:38.565Z,51.80
2023-02-13T08:05:06.227Z,38.97
2023-02-13T08:07:33.479Z,36.20
2023-02-13T08:10:19.357Z,36.58
2023-02-13T08:12:46.705Z,37.10
2023-02-13T08:15:14.699Z,43.08
2023-02-13T08:17:42.044Z,43.38
2023-02-13T08:20:09.966Z,42.47
2023-02-13T08:22:37.534Z,50.15
2023-02-13T08:25:05.208Z,48.38
2023-02-13T08:27:32.308Z,59.95
2023-02-13T08:29:59.685Z,45.60
2023-02-13T08:32:26.753Z,34.97
2023-02-13T08:34:54.115Z,40.67
2023-02-13T08:37:21.164Z,40.10
2023-02-13T08:39:48.578Z,31.17
2023-02-13T08:42:16.337Z,24.23
2023-02-13T08:44:44.494Z,25.38
2023-02-13T08:47:11.503Z,25.30
2023-02-13T08:49:38.860Z,27.85
2023-02-13T08:52:06.011Z,27.52
2023-02-13T08:54:34.283Z,21.63
2023-02-13T08:57:01.419Z,18.58
2023-02-13T08:59:28.794Z,17.42
2023-02-13T09:01:56.859Z,17.95
2023-02-13T09:04:24.242Z,14.23
2023-02-13T09:06:51.465Z,11.55
2023-02-13T09:09:19.481Z,12.48
2023-02-13T09:11:46.624Z,12.55
2023-02-13T09:14:14.094Z,16.95
2023-02-13T09:16:41.286Z,15.18
2023-02-13T09:19:08.741Z,18.15
2023-02-13T09:21:35.992Z,13.18
2023-02-13T09:24:06.961Z,13.15
2023-02-13T09:26:34.119Z,14.60
2023-02-13T09:29:01.524Z,12.07
2023-02-13T09:31:29.777Z,10.68
2023-02-13T09:33:57.393Z,14.80
2023-02-13T09:36:24.854Z,13.00
2023-02-13T09:38:52.823Z,12.52
2023-02-13T09:41:34.604Z,12.43
2023-02-13T09:44:36.527Z,13.48
2023-02-13T09:47:06.459Z,11.60
2023-02-13T09:49:35.700Z,14.48
2023-02-13T09:52:02.752Z,13.82
2023-02-13T09:54:32.289Z,15.38
2023-02-13T09:57:20.683Z,15.65
2023-02-13T10:00:13.379Z,16.67
2023-02-13T10:03:03.836Z,19.52
2023-02-13T10:05:37.457Z,45.80
2023-02-13T10:08:23.170Z,20.98
2023-02-13T10:11:20.920Z,22.67
2023-02-13T10:16:21.249Z,16.67
2023-02-13T10:18:50.779Z,19.02
2023-02-13T10:21:23.738Z,19.73
2023-02-13T10:23:54.879Z,16.80
2023-02-13T10:26:24.100Z,17.08
2023-02-13T10:29:16.461Z,15.82
2023-02-13T10:31:45.471Z,14.68
2023-02-13T10:34:15.349Z,14.98
2023-02-13T10:36:45.804Z,13.00
2023-02-13T10:39:12.904Z,15.85
2023-02-13T10:41:59.236Z,18.95
2023-02-13T10:44:26.383Z,18.55
2023-02-13T10:47:12.677Z,10.98
2023-02-13T10:49:42.765Z,10.93
2023-02-13T10:52:15.739Z,11.40
2023-02-13T10:54:57.584Z,14.40
2023-02-13T10:57:49.189Z,24.75
2023-02-13T11:00:31.057Z,20.80
2023-02-13T11:02:59.567Z,17.10
2023-02-13T11:05:46.892Z,21.83
2023-02-13T11:08:20.400Z,14.63
2023-02-13T11:10:47.769Z,13.80
2023-02-13T11:13:21.293Z,11.05
2023-02-13T11:16:05.589Z,8.95
2023-02-13T11:18:44.499Z,11.90
2023-02-13T11:21:16.518Z,9.07
2023-02-13T11:23:50.556Z,9.52
2023-02-13T11:26:26.434Z,7.00
2023-02-13T11:28:55.650Z,8.18
2023-02-13T11:31:28.204Z,11.77
2023-02-13T11:33:58.658Z,9.80
2023-02-13T11:36:30.305Z,8.98
2023-02-13T11:39:02.975Z,7.63
2023-02-13T11:41:30.878Z,5.38
2023-02-13T11:44:04.582Z,5.53
2023-02-13T11:46:44.224Z,6.50
2023-02-13T11:49:19.634Z,9.00
2023-02-13T11:51:48.596Z,6.97
2023-02-13T11:54:23.484Z,6.13
2023-02-13T11:57:07.356Z,7.10
2023-02-13T11:59:42.767Z,8.98
2023-02-13T12:02:09.881Z,6.25
2023-02-13T12:04:37.254Z,9.02
2023-02-13T12:07:12.436Z,9.63
2023-02-13T12:09:40.578Z,13.35
2023-02-13T12:12:12.243Z,8.27
2023-02-13T12:14:44.252Z,6.07
2023-02-13T12:17:30.883Z,3.83
2023-02-13T12:19:59.456Z,2.90
2023-02-13T12:22:33.882Z,2.25
2023-02-13T12:25:05.255Z,10.80
2023-02-13T12:27:35.547Z,18.05
2023-02-13T12:30:05.734Z,7.47
2023-02-13T12:32:32.784Z,13.77
2023-02-13T12:35:00.208Z,3.20
2023-02-13T12:37:30.141Z,5.60
2023-02-13T12:40:16.073Z,4.63
2023-02-13T12:42:43.153Z,5.93
2023-02-13T12:45:26.762Z,5.55
2023-02-13T12:48:12.808Z,6.10
2023-02-13T12:50:46.101Z,7.07
2023-02-13T12:53:32.316Z,12.98
2023-02-13T12:58:48.979Z,7.72
2023-02-13T13:01:16.466Z,8.95
2023-02-13T13:03:52.311Z,9.55
2023-02-13T13:06:19.987Z,7.20
2023-02-13T13:08:55.980Z,6.22
2023-02-13T13:11:30.229Z,5.78
2023-02-13T13:14:16.358Z,6.25
2023-02-13T13:16:56.015Z,5.07
2023-02-13T13:19:23.123Z,6.57
2023-02-13T13:22:11.737Z,7.40
2023-02-13T13:24:42.776Z,6.88
2023-02-13T13:27:14.314Z,5.25
2023-02-13T13:29:41.412Z,7.30
2023-02-13T13:32:09.505Z,8.35
2023-02-13T13:34:39.117Z,6.78
2023-02-13T13:37:26.693Z,6.32
2023-02-13T13:39:57.554Z,5.90
2023-02-13T13:42:47.645Z,5.72
2023-02-13T13:45:23.836Z,8.88
2023-02-13T13:47:54.464Z,6.05
2023-02-13T13:50:23.136Z,7.57
2023-02-13T13:53:08.745Z,7.68
2023-02-13T13:55:50.743Z,11.65
2023-02-13T13:58:22.641Z,14.10
2023-02-13T14:01:08.447Z,14.57
2023-02-13T14:03:36.885Z,11.73
2023-02-13T14:06:05.570Z,17.83
2023-02-13T14:08:41.953Z,27.45
2023-02-13T14:13:38.103Z,13.50
2023-02-13T14:16:06.818Z,12.52
2023-02-13T14:18:35.743Z,9.38
2023-02-13T14:21:03.668Z,7.95
2023-02-13T14:23:37.256Z,6.82
2023-02-13T14:26:16.482Z,5.85
2023-02-13T14:29:04.063Z,6.10
2023-02-13T14:31:35.817Z,6.93
2023-02-13T14:34:09.090Z,8.10
2023-02-13T14:36:41.077Z,8.38
2023-02-13T14:39:26.005Z,9.60
2023-02-13T14:41:55.713Z,9.35
2023-02-13T14:44:22.996Z,9.98
2023-02-13T14:46:51.272Z,11.93
2023-02-13T14:49:25.968Z,13.73
2023-02-13T14:51:57.584Z,16.90
2023-02-13T14:54:31.061Z,13.95
2023-02-13T14:57:06.052Z,9.43
2023-02-13T14:59:39.072Z,9.53
2023-02-13T15:02:25.405Z,9.15
2023-02-13T15:04:58.815Z,8.50
2023-02-13T15:07:54.531Z,7.95
2023-02-13T15:11:26.916Z,9.18
2023-02-13T15:13:54.114Z,10.05
2023-02-13T15:16:22.567Z,10.50
2023-02-13T15:18:52.600Z,14.18
2023-02-13T15:21:21.233Z,17.45
2023-02-13T15:23:52.510Z,15.80
2023-02-13T15:26:20.847Z,14.38
2023-02-13T15:28:58.888Z,11.75
2023-02-13T15:31:30.352Z,8.20
2023-02-13T15:33:59.041Z,8.60
2023-02-13T15:36:27.704Z,7.90
2023-02-13T15:39:04.638Z,8.15
2023-02-13T15:41:38.849Z,7.13
2023-02-13T15:44:08.723Z,8.15
2023-02-13T15:46:38.866Z,7.50
2023-02-13T15:49:14.245Z,7.53
2023-02-13T15:51:41.798Z,7.60
2023-02-13T15:54:27.053Z,8.02
2023-02-13T15:56:56.362Z,7.22
2023-02-13T15:59:25.264Z,6.30
2023-02-13T16:01:53.002Z,7.40
2023-02-13T16:04:21.008Z,16.85
2023-02-13T16:06:53.827Z,7.15
2023-02-13T16:09:30.224Z,7.68
2023-02-13T16:12:00.739Z,7.63
2023-02-13T16:14:29.567Z,9.57
2023-02-13T16:17:05.081Z,10.45
2023-02-13T16:19:32.438Z,33.25
2023-02-13T16:22:03.713Z,27.42
2023-02-13T16:24:31.028Z,31.27
2023-02-13T16:26:58.696Z,31.13
2023-02-13T16:29:26.578Z,16.65
2023-02-13T16:31:54.871Z,14.43
2023-02-13T16:34:24.709Z,12.15
2023-02-13T16:36:52.306Z,13.13
2023-02-13T16:39:30.155Z,11.77
2023-02-13T16:41:58.058Z,7.65
2023-02-13T16:44:26.378Z,13.68
2023-02-13T16:46:54.955Z,9.85
2023-02-13T16:49:25.929Z,7.70
2023-02-13T16:51:56.104Z,6.80
2023-02-13T16:54:23.152Z,6.85
2023-02-13T16:56:55.781Z,5.85
2023-02-13T16:59:30.617Z,7.13
2023-02-13T17:02:04.193Z,10.07
2023-02-13T17:04:31.359Z,21.65
2023-02-13T17:06:58.760Z,15.48
2023-02-13T17:09:25.795Z,10.57
2023-02-13T17:11:53.492Z,8.40
2023-02-13T17:14:20.884Z,8.57
2023-02-13T17:16:48.807Z,8.35
2023-02-13T17:19:15.885Z,7.75
2023-02-13T17:21:43.282Z,9.10
2023-02-13T17:24:14.784Z,8.40
2023-02-13T17:26:42.141Z,10.30
2023-02-13T17:29:09.169Z,9.68
2023-02-13T17:31:37.013Z,10.85
2023-02-13T17:34:05.247Z,12.40
2023-02-13T17:36:32.586Z,11.88
2023-02-13T17:38:59.719Z,13.73
2023-02-13T17:41:27.069Z,9.68
2023-02-13T17:43:54.136Z,8.38
2023-02-13T17:46:21.859Z,9.35
2023-02-13T17:48:48.914Z,10.68
2023-02-13T17:51:16.217Z,15.02
2023-02-13T17:53:43.241Z,26.13
2023-02-13T17:56:10.689Z,22.92
2023-02-13T17:58:37.709Z,27.17
2023-02-13T18:01:05.108Z,27.60
2023-02-13T18:03:32.186Z,24.02
2023-02-13T18:05:59.599Z,21.08
2023-02-13T18:08:26.750Z,21.15
2023-02-13T18:10:54.102Z,19.17
2023-02-13T18:13:21.170Z,21.30
2023-02-13T18:15:48.590Z,22.77
2023-02-13T18:18:16.186Z,19.00
2023-02-13T18:20:43.850Z,20.83
2023-02-13T18:23:10.858Z,20.23
2023-02-13T18:25:38.306Z,24.27
2023-02-13T18:28:05.298Z,24.58
2023-02-13T18:30:32.702Z,24.70
2023-02-13T18:32:59.759Z,26.05
2023-02-13T18:35:27.118Z,23.52
2023-02-13T18:37:54.265Z,18.98
2023-02-13T18:40:21.825Z,18.63
2023-02-13T18:42:51.188Z,25.33
2023-02-13T18:45:18.667Z,24.73
2023-02-13T18:47:45.699Z,26.20
2023-02-13T18:50:13.713Z,20.65
2023-02-13T18:52:40.976Z,22.60
2023-02-13T18:55:09.471Z,21.20
2023-02-13T18:57:36.505Z,21.17
2023-02-13T19:00:05.088Z,22.45
2023-02-13T19:02:33.611Z,22.10
2023-02-13T19:05:01.527Z,15.00
2023-02-13T19:07:28.594Z,16.88
2023-02-13T19:09:56.085Z,18.40
2023-02-13T19:12:23.213Z,17.70
2023-02-13T19:14:50.571Z,19.02
2023-02-13T19:17:20.355Z,18.05
2023-02-13T19:19:49.060Z,17.33
2023-02-13T19:22:16.087Z,16.33
2023-02-13T19:24:43.633Z,16.08
2023-02-13T19:27:11.485Z,13.88
2023-02-13T19:29:38.852Z,10.00
2023-02-13T19:32:05.945Z,10.88
2023-02-13T19:34:33.338Z,12.57
2023-02-13T19:37:00.470Z,11.80
2023-02-13T19:39:27.903Z,11.23
2023-02-13T19:41:55.006Z,10.20
2023-02-13T19:44:22.543Z,12.13
2023-02-13T19:46:49.765Z,9.13
2023-02-13T19:49:18.101Z,12.57
2023-02-13T19:51:47.025Z,14.30
2023-02-13T19:54:14.813Z,12.02
2023-02-13T19:56:41.966Z,12.95
2023-02-13T19:59:13.578Z,10.18
2023-02-13T20:01:44.121Z,10.52
2023-02-13T20:04:11.825Z,11.80
2023-02-13T20:06:39.642Z,13.98
2023-02-13T20:09:08.285Z,11.95
2023-02-13T20:11:35.372Z,14.52
2023-02-13T20:14:04.976Z,14.70
2023-02-13T20:16:37.128Z,17.13
2023-02-13T20:19:07.059Z,14.25
2023-02-13T20:21:35.428Z,13.98
2023-02-13T20:24:05.652Z,12.63
2023-02-13T20:26:33.256Z,11.35
2023-02-13T20:29:00.870Z,9.68
2023-02-13T20:31:29.300Z,10.73
2023-02-13T20:33:57.499Z,11.25
2023-02-13T20:36:25.890Z,12.20
2023-02-13T20:38:54.674Z,10.68
2023-02-13T20:41:23.108Z,10.57
2023-02-13T20:43:50.889Z,11.88
2023-02-13T20:46:18.311Z,13.63
2023-02-13T20:48:47.224Z,14.00
2023-02-13T20:51:15.881Z,13.32
2023-02-13T20:53:43.599Z,11.93
2023-02-13T20:56:12.437Z,12.60
2023-02-13T20:58:40.451Z,12.73
2023-02-13T21:01:11.612Z,12.35
2023-02-13T21:03:39.164Z,12.85
2023-02-13T21:06:06.489Z,12.65
2023-02-13T21:08:33.951Z,8.88
2023-02-13T21:11:04.981Z,9.63
2023-02-13T21:13:35.290Z,10.40
2023-02-13T21:16:06.642Z,11.25
2023-02-13T21:18:34.410Z,9.98
2023-02-13T21:21:01.748Z,9.55
2023-02-13T21:23:29.196Z,8.73
2023-02-13T21:25:56.220Z,9.48
2023-02-13T21:28:23.720Z,9.48
2023-02-13T21:30:50.800Z,15.93
2023-02-13T21:33:18.131Z,11.27
2023-02-13T21:35:45.186Z,11.55
2023-02-13T21:38:12.534Z,10.88
2023-02-13T21:40:40.923Z,10.68
2023-02-13T21:43:08.306Z,12.93
2023-02-13T21:45:35.411Z,12.27
2023-02-13T21:48:02.712Z,11.82
2023-02-13T21:50:29.699Z,15.77
2023-02-13T21:52:57.123Z,15.20
2023-02-13T21:55:25.217Z,11.60
2023-02-13T21:57:52.517Z,14.35
2023-02-13T22:00:20.483Z,16.95
2023-02-13T22:02:48.303Z,17.23
2023-02-13T22:05:15.822Z,12.52
2023-02-13T22:08:01.975Z,14.43
2023-02-13T22:10:29.043Z,15.48
2023-02-13T22:12:56.519Z,14.82
2023-02-13T22:15:23.504Z,14.65
2023-02-13T22:17:50.860Z,13.80
2023-02-13T22:20:18.980Z,14.80
2023-02-13T22:22:46.284Z,15.32
2023-02-13T22:25:13.351Z,17.40
2023-02-13T22:27:40.696Z,14.93
2023-02-13T22:30:08.066Z,15.95
2023-02-13T22:32:35.957Z,15.32
2023-02-13T22:35:03.022Z,14.95
2023-02-13T22:37:33.607Z,13.88
2023-02-13T22:40:02.479Z,15.60
2023-02-13T22:42:30.253Z,16.48
2023-02-13T22:44:57.463Z,14.90
2023-02-13T22:47:25.149Z,14.68
2023-02-13T22:49:52.609Z,16.00
2023-02-13T22:52:19.928Z,16.92
2023-02-13T22:54:46.959Z,17.02
2023-02-13T22:57:14.272Z,14.25
2023-02-13T22:59:41.332Z,14.38
2023-02-13T23:02:08.722Z,14.38
2023-02-13T23:04:35.834Z,14.25
2023-02-13T23:07:03.193Z,13.95
2023-02-13T23:09:30.429Z,15.68
2023-02-13T23:12:16.950Z,19.27
2023-02-13T23:14:44.285Z,14.55
2023-02-13T23:17:30.342Z,16.55
2023-02-13T23:19:57.483Z,14.53
2023-02-13T23:22:24.872Z,15.35
2023-02-13T23:24:51.987Z,16.20
2023-02-13T23:27:19.299Z,14.77
2023-02-13T23:29:46.777Z,11.50
2023-02-13T23:32:14.304Z,15.80
2023-02-13T23:34:41.572Z,14.30
2023-02-13T23:37:08.974Z,11.35
2023-02-13T23:39:35.954Z,15.73
2023-02-13T23:42:03.362Z,15.00
2023-02-13T23:44:30.558Z,17.73
2023-02-13T23:46:57.918Z,22.80
2023-02-13T23:49:24.927Z,20.33
2023-02-13T23:51:52.552Z,21.10
2023-02-13T23:54:21.631Z,21.23
2023-02-13T23:56:49.560Z,21.02
2023-02-13T23:59:17.388Z,24.45
